sensor_id;sensor_type;location;lat;lon;timestamp;pressure;altitude;pressure_sealevel;temperature;humidity
11440;BME280;5776;51.814;4.510;2023-02-24T00:01:26;101734.78;;;6.33;98.86
11440;BME280;5776;51.814;4.510;2023-02-24T00:03:57;101719.09;;;6.30;98.39
11440;BME280;5776;51.814;4.510;2023-02-24T00:06:28;101725.78;;;6.27;98.16
11440;BME280;5776;51.814;4.510;2023-02-24T00:09:08;101724.38;;;6.24;98.68
11440;BME280;5776;51.814;4.510;2023-02-24T00:11:36;101720.84;;;6.24;98.53
11440;BME280;5776;51.814;4.510;2023-02-24T00:14:05;101720.72;;;6.19;97.19
11440;BME280;5776;51.814;4.510;2023-02-24T00:16:32;101714.75;;;6.17;98.08
11440;BME280;5776;51.814;4.510;2023-02-24T00:18:59;101710.66;;;6.14;98.04
11440;BME280;5776;51.814;4.510;2023-02-24T00:21:25;101718.19;;;6.12;98.92
11440;BME280;5776;51.814;4.510;2023-02-24T00:23:53;101703.63;;;6.13;98.49
11440;BME280;5776;51.814;4.510;2023-02-24T00:26:19;101707.72;;;6.16;98.39
11440;BME280;5776;51.814;4.510;2023-02-24T00:28:46;101706.91;;;6.15;99.63
11440;BME280;5776;51.814;4.510;2023-02-24T00:31:14;101697.06;;;6.09;97.80
11440;BME280;5776;51.814;4.510;2023-02-24T00:33:43;101695.31;;;6.03;98.34
11440;BME280;5776;51.814;4.510;2023-02-24T00:36:15;101692.03;;;6.01;97.70
11440;BME280;5776;51.814;4.510;2023-02-24T00:38:42;101687.94;;;5.98;97.87
11440;BME280;5776;51.814;4.510;2023-02-24T00:41:18;101677.84;;;5.94;98.26
11440;BME280;5776;51.814;4.510;2023-02-24T00:43:48;101680.06;;;5.97;99.14
11440;BME280;5776;51.814;4.510;2023-02-24T00:46:19;101672.22;;;5.95;98.33
11440;BME280;5776;51.814;4.510;2023-02-24T00:48:49;101668.72;;;5.95;98.92
11440;BME280;5776;51.814;4.510;2023-02-24T00:51:23;101665.53;;;5.98;98.98
11440;BME280;5776;51.814;4.510;2023-02-24T00:53:51;101669.28;;;5.97;100.00
11440;BME280;5776;51.814;4.510;2023-02-24T00:56:21;101668.00;;;5.99;100.00
11440;BME280;5776;51.814;4.510;2023-02-24T00:58:47;101666.59;;;5.97;99.99
11440;BME280;5776;51.814;4.510;2023-02-24T01:01:15;101662.47;;;5.94;99.41
11440;BME280;5776;51.814;4.510;2023-02-24T01:03:43;101655.09;;;5.90;99.57
11440;BME280;5776;51.814;4.510;2023-02-24T01:06:11;101655.31;;;5.88;99.80
11440;BME280;5776;51.814;4.510;2023-02-24T01:08:38;101646.91;;;5.84;99.01
11440;BME280;5776;51.814;4.510;2023-02-24T01:11:08;101643.63;;;5.82;98.35
11440;BME280;5776;51.814;4.510;2023-02-24T01:13:52;101640.00;;;5.77;98.26
11440;BME280;5776;51.814;4.510;2023-02-24T01:16:18;101638.59;;;5.74;98.83
11440;BME280;5776;51.814;4.510;2023-02-24T01:18:45;101638.44;;;5.69;98.26
11440;BME280;5776;51.814;4.510;2023-02-24T01:21:15;101633.06;;;5.69;97.58
11440;BME280;5776;51.814;4.510;2023-02-24T01:23:45;101631.44;;;5.68;98.34
11440;BME280;5776;51.814;4.510;2023-02-24T01:26:12;101615.75;;;5.65;97.49
11440;BME280;5776;51.814;4.510;2023-02-24T01:28:37;101615.97;;;5.63;98.28
11440;BME280;5776;51.814;4.510;2023-02-24T01:31:05;101626.16;;;5.61;96.97
11440;BME280;5776;51.814;4.510;2023-02-24T01:33:32;101619.13;;;5.60;98.82
11440;BME280;5776;51.814;4.510;2023-02-24T01:36:15;101612.34;;;5.58;97.53
11440;BME280;5776;51.814;4.510;2023-02-24T01:38:42;101605.31;;;5.57;97.78
11440;BME280;5776;51.814;4.510;2023-02-24T01:41:10;101606.03;;;5.52;97.86
11440;BME280;5776;51.814;4.510;2023-02-24T01:46:27;101589.16;;;5.45;97.38
11440;BME280;5776;51.814;4.510;2023-02-24T01:48:56;101584.69;;;5.51;97.67
11440;BME280;5776;51.814;4.510;2023-02-24T01:51:25;101589.38;;;5.55;99.52
11440;BME280;5776;51.814;4.510;2023-02-24T01:53:54;101582.13;;;5.56;98.63
11440;BME280;5776;51.814;4.510;2023-02-24T01:56:20;101580.50;;;5.55;98.70
11440;BME280;5776;51.814;4.510;2023-02-24T01:58:46;101570.88;;;5.47;99.42
11440;BME280;5776;51.814;4.510;2023-02-24T02:01:14;101571.69;;;5.48;99.44
11440;BME280;5776;51.814;4.510;2023-02-24T02:03:42;101558.00;;;5.49;99.58
11440;BME280;5776;51.814;4.510;2023-02-24T02:06:12;101553.19;;;5.51;98.60
11440;BME280;5776;51.814;4.510;2023-02-24T02:08:40;101546.97;;;5.51;99.24
11440;BME280;5776;51.814;4.510;2023-02-24T02:11:13;101546.38;;;5.49;98.49
11440;BME280;5776;51.814;4.510;2023-02-24T02:13:45;101544.97;;;5.46;98.91
11440;BME280;5776;51.814;4.510;2023-02-24T02:22:03;101541.69;;;5.44;99.74
11440;BME280;5776;51.814;4.510;2023-02-24T02:27:55;101534.91;;;5.41;98.76
11440;BME280;5776;51.814;4.510;2023-02-24T02:39:30;101515.50;;;5.39;99.61
11440;BME280;5776;51.814;4.510;2023-02-24T02:44:37;101517.25;;;5.34;99.50
11440;BME280;5776;51.814;4.510;2023-02-24T02:49:48;101495.94;;;5.32;100.00
11440;BME280;5776;51.814;4.510;2023-02-24T02:52:34;101499.94;;;5.30;99.19
11440;BME280;5776;51.814;4.510;2023-02-24T02:55:10;101492.06;;;5.28;100.00
11440;BME280;5776;51.814;4.510;2023-02-24T02:57:39;101487.66;;;5.22;99.31
11440;BME280;5776;51.814;4.510;2023-02-24T03:00:16;101487.66;;;5.22;99.01
11440;BME280;5776;51.814;4.510;2023-02-24T03:02:53;101484.84;;;5.17;98.71
11440;BME280;5776;51.814;4.510;2023-02-24T03:05:30;101486.94;;;5.15;99.42
11440;BME280;5776;51.814;4.510;2023-02-24T03:08:01;101480.75;;;5.14;98.25
11440;BME280;5776;51.814;4.510;2023-02-24T03:10:30;101476.06;;;5.10;98.65
11440;BME280;5776;51.814;4.510;2023-02-24T03:13:00;101470.69;;;5.10;99.08
11440;BME280;5776;51.814;4.510;2023-02-24T03:15:30;101475.47;;;5.08;98.35
11440;BME280;5776;51.814;4.510;2023-02-24T03:18:04;101469.50;;;5.06;98.12
11440;BME280;5776;51.814;4.510;2023-02-24T03:20:40;101467.88;;;5.05;98.07
11440;BME280;5776;51.814;4.510;2023-02-24T03:25:53;101454.03;;;5.01;97.91
11440;BME280;5776;51.814;4.510;2023-02-24T03:28:35;101451.13;;;5.03;99.41
11440;BME280;5776;51.814;4.510;2023-02-24T03:31:15;101445.38;;;4.99;98.94
11440;BME280;5776;51.814;4.510;2023-02-24T03:33:54;101439.66;;;4.95;97.45
11440;BME280;5776;51.814;4.510;2023-02-24T03:36:26;101446.66;;;4.96;98.38
11440;BME280;5776;51.814;4.510;2023-02-24T03:38:52;101438.03;;;4.94;98.20
11440;BME280;5776;51.814;4.510;2023-02-24T03:41:18;101434.28;;;4.95;98.67
11440;BME280;5776;51.814;4.510;2023-02-24T03:43:46;101424.59;;;4.94;97.67
11440;BME280;5776;51.814;4.510;2023-02-24T03:46:15;101426.44;;;4.94;97.90
11440;BME280;5776;51.814;4.510;2023-02-24T03:48:47;101426.78;;;4.97;97.47
11440;BME280;5776;51.814;4.510;2023-02-24T03:51:17;101418.22;;;5.01;98.88
11440;BME280;5776;51.814;4.510;2023-02-24T03:56:58;101419.06;;;5.01;97.61
11440;BME280;5776;51.814;4.510;2023-02-24T03:59:35;101412.63;;;5.02;99.06
11440;BME280;5776;51.814;4.510;2023-02-24T04:02:15;101402.66;;;5.03;97.95
11440;BME280;5776;51.814;4.510;2023-02-24T04:04:50;101399.50;;;5.06;98.64
11440;BME280;5776;51.814;4.510;2023-02-24T04:07:31;101405.13;;;5.04;97.90
11440;BME280;5776;51.814;4.510;2023-02-24T04:12:42;101393.06;;;5.07;97.76
11440;BME280;5776;51.814;4.510;2023-02-24T04:15:30;101394.69;;;5.08;99.69
11440;BME280;5776;51.814;4.510;2023-02-24T04:18:07;101389.31;;;5.08;98.50
11440;BME280;5776;51.814;4.510;2023-02-24T04:20:37;101386.63;;;5.08;99.21
11440;BME280;5776;51.814;4.510;2023-02-24T04:23:14;101382.03;;;5.08;99.74
11440;BME280;5776;51.814;4.510;2023-02-24T04:25:43;101381.25;;;5.08;98.98
11440;BME280;5776;51.814;4.510;2023-02-24T04:28:12;101384.16;;;5.06;99.16
11440;BME280;5776;51.814;4.510;2023-02-24T04:30:41;101384.41;;;5.05;99.37
11440;BME280;5776;51.814;4.510;2023-02-24T04:33:08;101374.69;;;5.04;98.49
11440;BME280;5776;51.814;4.510;2023-02-24T04:35:35;101379.03;;;5.05;99.41
11440;BME280;5776;51.814;4.510;2023-02-24T04:38:03;101367.78;;;5.08;100.00
11440;BME280;5776;51.814;4.510;2023-02-24T04:40:30;101365.91;;;5.08;99.57
11440;BME280;5776;51.814;4.510;2023-02-24T04:42:56;101361.56;;;5.07;100.00
11440;BME280;5776;51.814;4.510;2023-02-24T04:45:29;101364.50;;;5.06;100.00
11440;BME280;5776;51.814;4.510;2023-02-24T04:47:57;101354.78;;;5.05;99.27
11440;BME280;5776;51.814;4.510;2023-02-24T04:50:32;101353.13;;;5.04;99.39
11440;BME280;5776;51.814;4.510;2023-02-24T04:53:00;101348.00;;;5.02;99.74
11440;BME280;5776;51.814;4.510;2023-02-24T04:55:29;101341.22;;;5.00;99.88
11440;BME280;5776;51.814;4.510;2023-02-24T04:57:58;101340.16;;;5.01;100.00
11440;BME280;5776;51.814;4.510;2023-02-24T05:00:25;101338.06;;;5.03;100.00
11440;BME280;5776;51.814;4.510;2023-02-24T05:02:54;101335.38;;;5.03;100.00
11440;BME280;5776;51.814;4.510;2023-02-24T05:05:22;101332.66;;;5.03;99.99
11440;BME280;5776;51.814;4.510;2023-02-24T05:07:57;101337.56;;;5.06;100.00
11440;BME280;5776;51.814;4.510;2023-02-24T05:10:36;101324.59;;;5.03;99.86
11440;BME280;5776;51.814;4.510;2023-02-24T05:13:03;101318.13;;;5.04;100.00
11440;BME280;5776;51.814;4.510;2023-02-24T05:15:31;101311.94;;;5.03;100.00
11440;BME280;5776;51.814;4.510;2023-02-24T05:17:59;101313.81;;;5.03;100.00
11440;BME280;5776;51.814;4.510;2023-02-24T05:20:26;101305.53;;;5.04;100.00
11440;BME280;5776;51.814;4.510;2023-02-24T05:23:11;101304.69;;;5.04;100.00
11440;BME280;5776;51.814;4.510;2023-02-24T05:25:38;101307.38;;;5.04;100.00
11440;BME280;5776;51.814;4.510;2023-02-24T05:28:08;101306.56;;;5.03;100.00
11440;BME280;5776;51.814;4.510;2023-02-24T05:30:34;101305.75;;;5.03;100.00
11440;BME280;5776;51.814;4.510;2023-02-24T05:33:00;101294.50;;;5.06;100.00
11440;BME280;5776;51.814;4.510;2023-02-24T05:35:26;101295.78;;;5.03;100.00
11440;BME280;5776;51.814;4.510;2023-02-24T05:37:52;101287.72;;;5.03;100.00
11440;BME280;5776;51.814;4.510;2023-02-24T05:40:19;101285.84;;;5.04;100.00
11440;BME280;5776;51.814;4.510;2023-02-24T05:42:48;101283.50;;;5.07;100.00
11440;BME280;5776;51.814;4.510;2023-02-24T05:45:14;101276.22;;;5.08;100.00
11440;BME280;5776;51.814;4.510;2023-02-24T05:47:40;101269.22;;;5.07;100.00
11440;BME280;5776;51.814;4.510;2023-02-24T05:50:11;101257.16;;;5.09;100.00
11440;BME280;5776;51.814;4.510;2023-02-24T05:52:37;101264.66;;;5.07;100.00
11440;BME280;5776;51.814;4.510;2023-02-24T05:55:04;101256.56;;;5.07;100.00
11440;BME280;5776;51.814;4.510;2023-02-24T05:57:32;101253.06;;;5.07;100.00
11440;BME280;5776;51.814;4.510;2023-02-24T06:00:00;101247.19;;;5.10;100.00
11440;BME280;5776;51.814;4.510;2023-02-24T06:02:36;101241.81;;;5.10;100.00
11440;BME280;5776;51.814;4.510;2023-02-24T06:05:02;101234.53;;;5.10;100.00
11440;BME280;5776;51.814;4.510;2023-02-24T06:07:30;101229.97;;;5.11;100.00
11440;BME280;5776;51.814;4.510;2023-02-24T06:10:00;101228.34;;;5.10;100.00
11440;BME280;5776;51.814;4.510;2023-02-24T06:12:29;101221.88;;;5.11;100.00
11440;BME280;5776;51.814;4.510;2023-02-24T06:14:55;101221.66;;;5.12;100.00
11440;BME280;5776;51.814;4.510;2023-02-24T06:17:22;101222.25;;;5.14;100.00
11440;BME280;5776;51.814;4.510;2023-02-24T06:19:50;101224.94;;;5.14;100.00
11440;BME280;5776;51.814;4.510;2023-02-24T06:22:18;101226.78;;;5.14;100.00
11440;BME280;5776;51.814;4.510;2023-02-24T06:24:45;101228.94;;;5.12;100.00
11440;BME280;5776;51.814;4.510;2023-02-24T06:27:16;101226.22;;;5.12;100.00
11440;BME280;5776;51.814;4.510;2023-02-24T06:29:50;101211.13;;;5.11;100.00
11440;BME280;5776;51.814;4.510;2023-02-24T06:32:21;101215.47;;;5.12;100.00
11440;BME280;5776;51.814;4.510;2023-02-24T06:34:48;101207.13;;;5.13;100.00
11440;BME280;5776;51.814;4.510;2023-02-24T06:37:16;101205.25;;;5.14;100.00
11440;BME280;5776;51.814;4.510;2023-02-24T06:39:43;101196.13;;;5.15;100.00
11440;BME280;5776;51.814;4.510;2023-02-24T06:42:09;101198.81;;;5.15;100.00
11440;BME280;5776;51.814;4.510;2023-02-24T06:44:37;101186.97;;;5.16;100.00
11440;BME280;5776;51.814;4.510;2023-02-24T06:47:06;101190.88;;;5.08;100.00
11440;BME280;5776;51.814;4.510;2023-02-24T06:49:32;101181.88;;;4.86;100.00
11440;BME280;5776;51.814;4.510;2023-02-24T06:51:59;101177.69;;;5.07;100.00
11440;BME280;5776;51.814;4.510;2023-02-24T06:54:26;101174.91;;;5.35;100.00
11440;BME280;5776;51.814;4.510;2023-02-24T06:56:58;101168.72;;;5.52;100.00
11440;BME280;5776;51.814;4.510;2023-02-24T06:59:25;101174.25;;;5.62;100.00
11440;BME280;5776;51.814;4.510;2023-02-24T07:01:55;101163.78;;;5.66;100.00
11440;BME280;5776;51.814;4.510;2023-02-24T07:04:21;101169.75;;;5.68;100.00
11440;BME280;5776;51.814;4.510;2023-02-24T07:06:55;101169.25;;;5.71;100.00
11440;BME280;5776;51.814;4.510;2023-02-24T07:09:24;101159.06;;;5.73;100.00
11440;BME280;5776;51.814;4.510;2023-02-24T07:11:52;101170.66;;;5.73;100.00
11440;BME280;5776;51.814;4.510;2023-02-24T07:14:22;101170.66;;;5.73;100.00
11440;BME280;5776;51.814;4.510;2023-02-24T07:16:49;101168.19;;;5.72;100.00
11440;BME280;5776;51.814;4.510;2023-02-24T07:19:27;101168.19;;;5.72;100.00
11440;BME280;5776;51.814;4.510;2023-02-24T07:21:56;101167.44;;;5.76;100.00
11440;BME280;5776;51.814;4.510;2023-02-24T07:24:25;101166.66;;;5.59;100.00
11440;BME280;5776;51.814;4.510;2023-02-24T07:27:03;101161.59;;;5.46;100.00
11440;BME280;5776;51.814;4.510;2023-02-24T07:29:31;101159.41;;;5.43;100.00
11440;BME280;5776;51.814;4.510;2023-02-24T07:31:59;101156.13;;;5.40;100.00
11440;BME280;5776;51.814;4.510;2023-02-24T07:34:28;101150.75;;;5.40;100.00
11440;BME280;5776;51.814;4.510;2023-02-24T07:36:56;101152.38;;;5.41;100.00
11440;BME280;5776;51.814;4.510;2023-02-24T07:39:23;101141.06;;;5.39;100.00
11440;BME280;5776;51.814;4.510;2023-02-24T07:41:49;101143.75;;;5.39;100.00
11440;BME280;5776;51.814;4.510;2023-02-24T07:44:18;101136.72;;;5.38;100.00
11440;BME280;5776;51.814;4.510;2023-02-24T07:46:45;101136.22;;;5.41;100.00
11440;BME280;5776;51.814;4.510;2023-02-24T07:49:14;101128.13;;;5.41;100.00
11440;BME280;5776;51.814;4.510;2023-02-24T07:51:41;101132.72;;;5.41;100.00
11440;BME280;5776;51.814;4.510;2023-02-24T07:54:09;101123.59;;;5.42;100.00
11440;BME280;5776;51.814;4.510;2023-02-24T07:56:36;101124.97;;;5.45;100.00
11440;BME280;5776;51.814;4.510;2023-02-24T07:59:11;101118.25;;;5.47;100.00
11440;BME280;5776;51.814;4.510;2023-02-24T08:01:41;101112.88;;;5.47;100.00
11440;BME280;5776;51.814;4.510;2023-02-24T08:04:16;101104.78;;;5.47;100.00
11440;BME280;5776;51.814;4.510;2023-02-24T08:06:44;101094.59;;;5.49;100.00
11440;BME280;5776;51.814;4.510;2023-02-24T08:09:14;101104.28;;;5.50;100.00
11440;BME280;5776;51.814;4.510;2023-02-24T08:11:54;101092.59;;;5.61;100.00
11440;BME280;5776;51.814;4.510;2023-02-24T08:14:25;101083.72;;;5.44;100.00
11440;BME280;5776;51.814;4.510;2023-02-24T08:16:55;101085.78;;;5.37;100.00
11440;BME280;5776;51.814;4.510;2023-02-24T08:19:27;101092.50;;;5.34;100.00
11440;BME280;5776;51.814;4.510;2023-02-24T08:21:58;101083.56;;;5.34;100.00
11440;BME280;5776;51.814;4.510;2023-02-24T08:27:16;101094.09;;;5.35;100.00
11440;BME280;5776;51.814;4.510;2023-02-24T08:29:49;101083.84;;;5.32;100.00
11440;BME280;5776;51.814;4.510;2023-02-24T08:32:38;101085.03;;;5.41;100.00
11440;BME280;5776;51.814;4.510;2023-02-24T08:35:13;101071.63;;;5.47;100.00
11440;BME280;5776;51.814;4.510;2023-02-24T08:37:48;101075.03;;;5.59;100.00
11440;BME280;5776;51.814;4.510;2023-02-24T08:40:21;101058.81;;;5.54;100.00
11440;BME280;5776;51.814;4.510;2023-02-24T08:43:03;101059.63;;;5.54;100.00
11440;BME280;5776;51.814;4.510;2023-02-24T08:45:52;101057.13;;;5.48;100.00
11440;BME280;5776;51.814;4.510;2023-02-24T08:48:30;101059.88;;;5.53;100.00
11440;BME280;5776;51.814;4.510;2023-02-24T08:53:37;101047.16;;;5.48;100.00
11440;BME280;5776;51.814;4.510;2023-02-24T08:56:10;101035.56;;;5.48;100.00
11440;BME280;5776;51.814;4.510;2023-02-24T08:58:40;101037.44;;;5.47;100.00
11440;BME280;5776;51.814;4.510;2023-02-24T09:01:25;101028.28;;;5.48;100.00
11440;BME280;5776;51.814;4.510;2023-02-24T09:03:54;101019.16;;;5.49;100.00
11440;BME280;5776;51.814;4.510;2023-02-24T09:06:40;101017.00;;;5.51;100.00
11440;BME280;5776;51.814;4.510;2023-02-24T09:09:09;101018.16;;;5.55;100.00
11440;BME280;5776;51.814;4.510;2023-02-24T09:11:55;101008.50;;;5.59;100.00
11440;BME280;5776;51.814;4.510;2023-02-24T09:14:26;101010.25;;;5.71;100.00
11440;BME280;5776;51.814;4.510;2023-02-24T09:16:53;101018.16;;;5.77;100.00
11440;BME280;5776;51.814;4.510;2023-02-24T09:19:30;101011.88;;;5.72;100.00
11440;BME280;5776;51.814;4.510;2023-02-24T09:22:29;101010.69;;;5.84;100.00
11440;BME280;5776;51.814;4.510;2023-02-24T09:25:13;101021.63;;;5.95;100.00
11440;BME280;5776;51.814;4.510;2023-02-24T09:27:53;101008.69;;;5.97;100.00
11440;BME280;5776;51.814;4.510;2023-02-24T09:30:26;101004.44;;;6.01;100.00
11440;BME280;5776;51.814;4.510;2023-02-24T09:33:10;101012.78;;;5.99;100.00
11440;BME280;5776;51.814;4.510;2023-02-24T09:35:44;101012.28;;;6.02;100.00
11440;BME280;5776;51.814;4.510;2023-02-24T09:38:16;101002.00;;;5.99;100.00
11440;BME280;5776;51.814;4.510;2023-02-24T09:40:44;100993.41;;;6.02;100.00
11440;BME280;5776;51.814;4.510;2023-02-24T09:43:20;100988.81;;;6.03;100.00
11440;BME280;5776;51.814;4.510;2023-02-24T09:45:53;100987.72;;;6.04;100.00
11440;BME280;5776;51.814;4.510;2023-02-24T09:48:31;100982.34;;;6.04;100.00
11440;BME280;5776;51.814;4.510;2023-02-24T09:51:13;100980.22;;;6.06;100.00
11440;BME280;5776;51.814;4.510;2023-02-24T09:53:48;100985.09;;;6.09;100.00
11440;BME280;5776;51.814;4.510;2023-02-24T09:56:28;100974.31;;;6.09;100.00
11440;BME280;5776;51.814;4.510;2023-02-24T09:59:06;100981.34;;;6.10;100.00
11440;BME280;5776;51.814;4.510;2023-02-24T10:07:15;100959.78;;;6.10;100.00
11440;BME280;5776;51.814;4.510;2023-02-24T10:09:48;100948.47;;;6.13;100.00
11440;BME280;5776;51.814;4.510;2023-02-24T10:12:16;100957.38;;;6.14;100.00
11440;BME280;5776;51.814;4.510;2023-02-24T10:18:14;100959.06;;;6.20;100.00
11440;BME280;5776;51.814;4.510;2023-02-24T10:20:39;100957.97;;;6.21;100.00
11440;BME280;5776;51.814;4.510;2023-02-24T10:32:00;100930.00;;;6.00;100.00
11440;BME280;5776;51.814;4.510;2023-02-24T10:34:31;100931.16;;;6.09;100.00
11440;BME280;5776;51.814;4.510;2023-02-24T10:37:11;100928.56;;;6.19;100.00
11440;BME280;5776;51.814;4.510;2023-02-24T10:39:37;100934.41;;;6.11;100.00
11440;BME280;5776;51.814;4.510;2023-02-24T10:42:08;100927.59;;;6.03;100.00
11440;BME280;5776;51.814;4.510;2023-02-24T10:44:45;100931.16;;;6.09;100.00
11440;BME280;5776;51.814;4.510;2023-02-24T10:49:49;100922.00;;;6.10;100.00
11440;BME280;5776;51.814;4.510;2023-02-24T10:52:36;100923.91;;;6.10;100.00
11440;BME280;5776;51.814;4.510;2023-02-24T10:55:44;100914.97;;;6.09;100.00
11440;BME280;5776;51.814;4.510;2023-02-24T10:58:30;100929.84;;;6.12;100.00
11440;BME280;5776;51.814;4.510;2023-02-24T11:03:54;100918.84;;;6.18;100.00
11440;BME280;5776;51.814;4.510;2023-02-24T11:06:30;100916.19;;;6.23;100.00
11440;BME280;5776;51.814;4.510;2023-02-24T11:09:04;100911.34;;;6.25;100.00
11440;BME280;5776;51.814;4.510;2023-02-24T11:11:48;100907.38;;;6.33;100.00
11440;BME280;5776;51.814;4.510;2023-02-24T11:14:38;100908.19;;;6.34;100.00
11440;BME280;5776;51.814;4.510;2023-02-24T11:17:30;100910.91;;;6.39;100.00
11440;BME280;5776;51.814;4.510;2023-02-24T11:20:06;100906.03;;;6.36;100.00
11440;BME280;5776;51.814;4.510;2023-02-24T11:22:41;100896.63;;;6.38;100.00
11440;BME280;5776;51.814;4.510;2023-02-24T11:25:25;100891.22;;;6.38;100.00
11440;BME280;5776;51.814;4.510;2023-02-24T11:27:54;100883.94;;;6.39;100.00
11440;BME280;5776;51.814;4.510;2023-02-24T11:35:49;100888.03;;;6.46;100.00
11440;BME280;5776;51.814;4.510;2023-02-24T11:38:33;100887.75;;;6.43;100.00
11440;BME280;5776;51.814;4.510;2023-02-24T11:41:18;100876.69;;;6.44;100.00
11440;BME280;5776;51.814;4.510;2023-02-24T11:43:53;100882.41;;;6.48;100.00
11440;BME280;5776;51.814;4.510;2023-02-24T11:46:36;100875.91;;;6.49;100.00
11440;BME280;5776;51.814;4.510;2023-02-24T11:49:16;100870.78;;;6.47;100.00
11440;BME280;5776;51.814;4.510;2023-02-24T11:51:47;100857.31;;;6.47;100.00
11440;BME280;5776;51.814;4.510;2023-02-24T11:54:14;100850.53;;;6.45;100.00
11440;BME280;5776;51.814;4.510;2023-02-24T11:56:47;100864.31;;;6.48;100.00
11440;BME280;5776;51.814;4.510;2023-02-24T12:05:01;100852.75;;;6.53;100.00
11440;BME280;5776;51.814;4.510;2023-02-24T12:07:36;100838.16;;;6.54;100.00
11440;BME280;5776;51.814;4.510;2023-02-24T12:12:43;100833.84;;;6.53;100.00
11440;BME280;5776;51.814;4.510;2023-02-24T12:17:58;100835.22;;;6.56;100.00
11440;BME280;5776;51.814;4.510;2023-02-24T12:20:37;100821.19;;;6.59;100.00
11440;BME280;5776;51.814;4.510;2023-02-24T12:31:40;100824.19;;;6.62;100.00
11440;BME280;5776;51.814;4.510;2023-02-24T12:34:42;100817.72;;;6.63;100.00
11440;BME280;5776;51.814;4.510;2023-02-24T12:37:21;100820.41;;;6.63;100.00
11440;BME280;5776;51.814;4.510;2023-02-24T12:40:14;100813.94;;;6.64;100.00
11440;BME280;5776;51.814;4.510;2023-02-24T12:59:37;100783.75;;;6.67;100.00
11440;BME280;5776;51.814;4.510;2023-02-24T13:02:15;100773.47;;;6.69;100.00
11440;BME280;5776;51.814;4.510;2023-02-24T13:15:30;100761.63;;;6.76;100.00
11440;BME280;5776;51.814;4.510;2023-02-24T13:17:56;100755.16;;;6.77;100.00
11440;BME280;5776;51.814;4.510;2023-02-24T13:20:36;100757.34;;;6.80;100.00
11440;BME280;5776;51.814;4.510;2023-02-24T13:23:18;100754.66;;;6.80;100.00
11440;BME280;5776;51.814;4.510;2023-02-24T13:25:53;100758.41;;;6.79;100.00
11440;BME280;5776;51.814;4.510;2023-02-24T13:28:30;100752.72;;;6.75;100.00
11440;BME280;5776;51.814;4.510;2023-02-24T13:31:04;100755.16;;;6.77;100.00
11440;BME280;5776;51.814;4.510;2023-02-24T13:33:37;100738.69;;;6.78;100.00
11440;BME280;5776;51.814;4.510;2023-02-24T13:36:11;100744.09;;;6.78;100.00
11440;BME280;5776;51.814;4.510;2023-02-24T13:38:43;100742.75;;;6.81;100.00
11440;BME280;5776;51.814;4.510;2023-02-24T13:41:35;100738.97;;;6.82;100.00
11440;BME280;5776;51.814;4.510;2023-02-24T13:44:19;100739.81;;;6.87;100.00
11440;BME280;5776;51.814;4.510;2023-02-24T13:49:54;100747.94;;;6.98;100.00
11440;BME280;5776;51.814;4.510;2023-02-24T13:55:31;100736.06;;;7.04;100.00
11440;BME280;5776;51.814;4.510;2023-02-24T14:01:17;100746.59;;;7.00;100.00
11440;BME280;5776;51.814;4.510;2023-02-24T14:03:48;100739.00;;;6.97;100.00
11440;BME280;5776;51.814;4.510;2023-02-24T14:06:26;100731.47;;;6.99;100.00
11440;BME280;5776;51.814;4.510;2023-02-24T14:08:58;100736.06;;;6.99;100.00
11440;BME280;5776;51.814;4.510;2023-02-24T14:11:29;100722.56;;;6.99;100.00
11440;BME280;5776;51.814;4.510;2023-02-24T14:13:57;100725.50;;;6.97;100.00
11440;BME280;5776;51.814;4.510;2023-02-24T14:16:34;100722.31;;;7.00;100.00
11440;BME280;5776;51.814;4.510;2023-02-24T14:19:08;100730.41;;;7.00;100.00
11440;BME280;5776;51.814;4.510;2023-02-24T14:21:36;100736.63;;;7.06;100.00
11440;BME280;5776;51.814;4.510;2023-02-24T14:24:10;100731.47;;;7.09;100.00
11440;BME280;5776;51.814;4.510;2023-02-24T14:26:43;100736.88;;;7.09;100.00
11440;BME280;5776;51.814;4.510;2023-02-24T14:29:14;100743.38;;;7.08;100.00
11440;BME280;5776;51.814;4.510;2023-02-24T14:31:46;100736.38;;;7.07;100.00
11440;BME280;5776;51.814;4.510;2023-02-24T14:34:16;100740.69;;;7.08;100.00
11440;BME280;5776;51.814;4.510;2023-02-24T14:36:44;100740.69;;;7.08;100.00
11440;BME280;5776;51.814;4.510;2023-02-24T14:39:28;100744.97;;;7.09;100.00
11440;BME280;5776;51.814;4.510;2023-02-24T14:42:11;100742.84;;;7.11;100.00
11440;BME280;5776;51.814;4.510;2023-02-24T14:47:13;100734.72;;;7.11;100.00
11440;BME280;5776;51.814;4.510;2023-02-24T14:49:55;100739.09;;;7.18;100.00
11440;BME280;5776;51.814;4.510;2023-02-24T14:52:40;100740.13;;;7.17;100.00
11440;BME280;5776;51.814;4.510;2023-02-24T14:55:27;100737.44;;;7.17;100.00
11440;BME280;5776;51.814;4.510;2023-02-24T14:58:14;100730.44;;;7.16;100.00
11440;BME280;5776;51.814;4.510;2023-02-24T15:00:54;100734.19;;;7.20;100.00
11440;BME280;5776;51.814;4.510;2023-02-24T15:05:53;100739.09;;;7.23;100.00
11440;BME280;5776;51.814;4.510;2023-02-24T15:08:38;100732.03;;;7.22;100.00
11440;BME280;5776;51.814;4.510;2023-02-24T15:13:50;100734.75;;;7.37;100.00
11440;BME280;5776;51.814;4.510;2023-02-24T15:16:20;100737.75;;;7.35;100.00
11440;BME280;5776;51.814;4.510;2023-02-24T15:18:56;100747.75;;;7.35;100.00
11440;BME280;5776;51.814;4.510;2023-02-24T15:21:37;100749.91;;;7.38;100.00
11440;BME280;5776;51.814;4.510;2023-02-24T15:24:23;100750.19;;;7.42;100.00
11440;BME280;5776;51.814;4.510;2023-02-24T15:29:22;100743.97;;;7.46;100.00
11440;BME280;5776;51.814;4.510;2023-02-24T15:31:50;100736.13;;;7.45;100.00
11440;BME280;5776;51.814;4.510;2023-02-24T15:34:22;100739.38;;;7.42;100.00
11440;BME280;5776;51.814;4.510;2023-02-24T15:36:56;100742.34;;;7.45;100.00
11440;BME280;5776;51.814;4.510;2023-02-24T15:39:26;100734.25;;;7.45;100.00
11440;BME280;5776;51.814;4.510;2023-02-24T15:42:07;100733.44;;;7.50;100.00
11440;BME280;5776;51.814;4.510;2023-02-24T15:44:34;100731.56;;;7.50;100.00
11440;BME280;5776;51.814;4.510;2023-02-24T15:49:45;100741.81;;;7.53;100.00